createdAt,value
2018-12-10T03:03:56.244Z,1006.28
2018-12-10T03:05:22.633Z,1006.37
2018-12-10T03:06:49.682Z,1006.37
2018-12-10T03:08:17.072Z,1006.40
2018-12-10T03:09:44.237Z,1006.37
2018-12-10T03:11:11.520Z,1006.40
2018-12-10T03:12:38.924Z,1006.41
2018-12-10T03:14:06.084Z,1006.43
2018-12-10T03:15:33.271Z,1006.47
2018-12-10T03:17:03.611Z,1006.50
2018-12-10T03:18:27.956Z,1006.47
2018-12-10T03:19:55.170Z,1006.50
2018-12-10T03:21:22.465Z,1006.45
2018-12-10T03:27:40.578Z,1006.55
2018-12-10T03:29:07.058Z,1006.63
2018-12-10T03:30:34.283Z,1006.66
2018-12-10T03:32:01.497Z,1006.61
2018-12-10T03:33:28.696Z,1006.66
2018-12-10T03:34:55.924Z,1006.64
2018-12-10T04:02:23.688Z,1007.01
2018-12-10T04:03:50.293Z,1007.09
2018-12-10T04:05:17.322Z,1007.07
2018-12-10T04:06:44.546Z,1007.10
2018-12-10T04:11:06.272Z,1007.11
2018-12-10T04:12:32.801Z,1007.07
2018-12-10T04:15:46.671Z,1007.13
2018-12-10T04:17:13.400Z,1007.18
2018-12-10T04:18:40.459Z,1007.19
2018-12-10T04:22:23.441Z,1007.26
2018-12-10T04:24:19.200Z,1007.33
2018-12-10T04:25:55.808Z,1007.31
2018-12-10T04:27:22.698Z,1007.28
2018-12-10T04:28:49.571Z,1007.27
2018-12-10T04:30:16.888Z,1007.29
2018-12-10T04:31:44.143Z,1007.27
2018-12-10T04:33:11.268Z,1007.27
2018-12-10T04:34:38.452Z,1007.29
2018-12-10T04:36:05.777Z,1007.33
2018-12-10T04:37:33.145Z,1007.30
2018-12-10T04:39:20.008Z,1007.31
2018-12-10T04:51:26.711Z,1007.39
2018-12-10T04:53:22.079Z,1007.42
2018-12-10T04:54:48.635Z,1007.39
2018-12-10T04:56:15.720Z,1007.54
2018-12-10T04:57:43.061Z,1007.55
2018-12-10T04:59:10.182Z,1007.59
2018-12-10T05:00:37.304Z,1007.58
2018-12-10T05:02:04.498Z,1007.57
2018-12-10T05:03:31.603Z,1007.57
2018-12-10T05:04:58.864Z,1007.58
2018-12-10T05:06:26.238Z,1007.67
2018-12-10T05:07:53.398Z,1007.65
2018-12-10T05:09:20.600Z,1007.67
2018-12-10T05:10:47.839Z,1007.74
2018-12-10T05:12:15.265Z,1007.71
2018-12-10T05:13:42.304Z,1007.70
2018-12-10T05:15:09.632Z,1007.70
2018-12-10T05:16:36.800Z,1007.71
2018-12-10T05:28:34.067Z,1007.73
2018-12-10T05:30:00.395Z,1007.68
2018-12-10T05:31:27.520Z,1007.63
2018-12-10T05:32:54.657Z,1007.67
2018-12-10T05:34:21.802Z,1007.72
2018-12-10T05:35:48.849Z,1007.71
2018-12-10T05:37:16.069Z,1007.70
2018-12-10T05:38:43.359Z,1007.76
2018-12-10T05:40:10.606Z,1007.79
2018-12-10T05:41:37.803Z,1007.85
2018-12-10T05:43:05.147Z,1007.90
2018-12-10T05:44:32.443Z,1007.89
2018-12-10T05:45:59.712Z,1007.87
2018-12-10T05:47:26.974Z,1007.89
2018-12-10T07:05:47.626Z,1008.49
2018-12-10T07:07:14.124Z,1008.53
2018-12-10T07:08:41.227Z,1008.48
2018-12-10T07:10:08.188Z,1008.54
2018-12-10T07:11:35.347Z,1008.53
2018-12-10T07:13:02.679Z,1008.57
2018-12-10T07:15:27.764Z,1008.67
2018-12-10T07:30:28.650Z,1008.89
2018-12-10T07:31:55.186Z,1008.92
2018-12-10T07:33:22.298Z,1008.93
2018-12-10T07:34:49.247Z,1008.95
2018-12-10T07:36:16.433Z,1009.01
2018-12-10T07:37:43.544Z,1009.04
2018-12-10T07:39:10.873Z,1009.11
2018-12-10T07:40:37.808Z,1009.13
2018-12-10T07:42:14.790Z,1009.15
2018-12-10T07:58:43.382Z,1009.18
2018-12-10T08:00:09.924Z,1009.23
2018-12-10T08:01:37.005Z,1009.27
2018-12-10T08:03:04.160Z,1009.30
2018-12-10T08:04:31.277Z,1009.33
2018-12-10T08:05:58.454Z,1009.32
2018-12-10T08:18:24.877Z,1009.31
2018-12-10T08:19:51.416Z,1009.34
2018-12-10T08:21:18.437Z,1009.35
2018-12-10T08:22:45.696Z,1009.35
2018-12-10T08:24:22.607Z,1009.31
2018-12-10T08:25:49.531Z,1009.33
2018-12-10T08:32:36.700Z,1009.52
2018-12-10T08:35:01.365Z,1009.56
2018-12-10T08:36:28.301Z,1009.59
2018-12-10T08:37:55.478Z,1009.61
2018-12-10T08:39:22.510Z,1009.57
2018-12-10T08:40:49.794Z,1009.60
2018-12-10T08:42:17.275Z,1009.61
2018-12-10T08:43:44.494Z,1009.61
2018-12-10T08:45:11.543Z,1009.61
2018-12-10T08:46:38.698Z,1009.64
2018-12-10T08:48:05.831Z,1009.69
2018-12-10T08:49:33.057Z,1009.70
2018-12-10T08:51:00.042Z,1009.72
2018-12-10T08:52:27.145Z,1009.72
2018-12-10T08:54:04.188Z,1009.77
2018-12-10T08:55:40.745Z,1009.79
2018-12-10T08:57:17.675Z,1009.76
2018-12-10T08:59:42.669Z,1009.83
2018-12-10T09:04:13.509Z,1009.80
2018-12-10T09:05:40.269Z,1009.79
2018-12-10T09:07:07.365Z,1009.81
2018-12-10T09:08:34.556Z,1009.83
2018-12-10T09:10:01.635Z,1009.89
2018-12-10T09:11:29.016Z,1009.87
2018-12-10T09:12:56.238Z,1009.91
2018-12-10T09:14:23.424Z,1009.96
2018-12-10T09:15:50.552Z,1009.95
2018-12-10T09:17:17.774Z,1009.94
2018-12-10T09:18:45.026Z,1009.98
2018-12-10T09:20:12.175Z,1010.00
2018-12-10T09:21:39.490Z,1010.01
2018-12-10T09:23:35.857Z,1010.04
2018-12-10T09:25:02.767Z,1010.09
2018-12-10T09:26:29.710Z,1010.10
2018-12-10T09:27:56.749Z,1010.07
2018-12-10T09:29:23.712Z,1010.06
2018-12-10T09:30:50.684Z,1010.08
2018-12-10T09:32:17.978Z,1010.10
2018-12-10T09:33:45.164Z,1010.10
2018-12-10T09:35:12.316Z,1010.10
2018-12-10T09:36:49.098Z,1010.13
2018-12-10T09:38:16.254Z,1010.17
2018-12-10T09:39:43.570Z,1010.14
2018-12-10T09:41:10.722Z,1010.15
2018-12-10T09:42:38.050Z,1010.14
2018-12-10T09:44:04.997Z,1010.19
2018-12-10T09:45:32.298Z,1010.13
2018-12-10T09:46:59.628Z,1010.21
2018-12-10T09:48:26.636Z,1010.17
2018-12-10T09:49:53.802Z,1010.25
2018-12-10T09:51:21.003Z,1010.22
2018-12-10T09:52:48.175Z,1010.16
2018-12-10T09:54:15.415Z,1010.15
2018-12-10T09:55:42.623Z,1010.18
2018-12-10T09:57:09.885Z,1010.23
2018-12-10T09:58:37.115Z,1010.22
2018-12-10T10:00:04.254Z,1010.17
2018-12-10T10:01:31.362Z,1010.21
2018-12-10T10:02:58.704Z,1010.17
2018-12-10T10:04:25.871Z,1010.16
2018-12-10T10:05:53.301Z,1010.15
2018-12-10T10:07:28.220Z,1010.20
2018-12-10T10:08:49.381Z,1010.17
2018-12-10T10:10:14.560Z,1010.20
2018-12-10T10:11:41.816Z,1010.18
2018-12-10T10:13:09.055Z,1010.19
2018-12-10T10:14:36.366Z,1010.20
2018-12-10T10:16:03.661Z,1010.18
2018-12-10T10:17:30.753Z,1010.24
2018-12-10T10:18:57.851Z,1010.20
2018-12-10T10:20:25.111Z,1010.18
2018-12-10T10:21:52.362Z,1010.18
2018-12-10T10:23:19.675Z,1010.20
2018-12-10T10:24:47.018Z,1010.20
2018-12-10T10:26:13.918Z,1010.23
2018-12-10T10:27:41.017Z,1010.28
2018-12-10T10:29:08.383Z,1010.24
2018-12-10T10:30:35.484Z,1010.25
2018-12-10T10:32:12.432Z,1010.13
2018-12-10T10:33:39.426Z,1010.18
2018-12-10T10:35:55.400Z,1010.15
2018-12-10T10:37:21.995Z,1010.14
2018-12-10T10:39:47.100Z,1010.11
2018-12-10T10:41:13.897Z,1010.09
2018-12-10T10:43:10.282Z,1010.13
2018-12-10T10:46:52.837Z,1010.21
2018-12-10T10:50:06.105Z,1010.16
2018-12-10T10:51:32.666Z,1010.20
2018-12-10T10:52:59.626Z,1010.21
2018-12-10T10:54:26.879Z,1010.25
2018-12-10T10:55:53.964Z,1010.19
2018-12-10T10:57:21.279Z,1010.19
2018-12-10T10:58:48.317Z,1010.15
2018-12-10T11:00:15.705Z,1010.12
2018-12-10T11:01:42.940Z,1010.10
2018-12-10T11:03:10.225Z,1010.12
2018-12-10T11:04:37.994Z,1010.04
2018-12-10T11:06:04.611Z,1009.99
2018-12-10T11:07:31.684Z,1009.97
2018-12-10T11:08:58.886Z,1009.94
2018-12-10T11:10:26.111Z,1009.99
2018-12-10T11:11:53.132Z,1010.04
2018-12-10T11:13:20.527Z,1010.02
2018-12-10T11:17:42.317Z,1009.98
2018-12-10T11:19:08.870Z,1010.00
2018-12-10T11:20:35.938Z,1010.06
2018-12-10T11:22:03.116Z,1010.02
2018-12-10T11:23:30.295Z,1010.01
2018-12-10T11:24:57.508Z,1010.05
2018-12-10T11:26:24.711Z,1010.02
2018-12-10T11:27:52.000Z,1010.00
2018-12-10T11:29:19.341Z,1009.93
2018-12-10T11:30:46.443Z,1009.97
2018-12-10T11:32:13.639Z,1009.95
2018-12-10T11:33:40.998Z,1009.97
2018-12-10T11:35:08.085Z,1009.92
2018-12-10T11:36:35.320Z,1009.88
2018-12-10T11:38:02.575Z,1009.94
2018-12-10T11:39:29.779Z,1009.93
2018-12-10T11:40:57.159Z,1009.89
2018-12-10T11:42:24.395Z,1009.86
2018-12-10T11:43:51.491Z,1009.94
2018-12-10T11:45:18.748Z,1009.94
2018-12-10T11:46:45.797Z,1009.99
2018-12-10T11:48:13.046Z,1010.04
2018-12-10T11:50:19.285Z,1010.08
2018-12-10T11:53:51.977Z,1010.01
2018-12-10T11:55:18.463Z,1010.02
2018-12-10T11:56:45.698Z,1010.01
2018-12-10T11:58:13.013Z,1010.00
2018-12-10T11:59:40.133Z,1009.95
2018-12-10T12:01:07.133Z,1009.97
2018-12-10T12:02:34.497Z,1009.96
2018-12-10T12:04:01.610Z,1009.97
2018-12-10T12:05:28.864Z,1009.99
2018-12-10T12:06:56.048Z,1010.04
2018-12-10T12:08:23.284Z,1010.13
2018-12-10T12:09:50.523Z,1010.12
2018-12-10T12:11:17.773Z,1010.17
2018-12-10T12:12:44.952Z,1010.16
2018-12-10T12:14:12.187Z,1010.15
2018-12-10T12:15:39.406Z,1010.17
2018-12-10T12:17:06.585Z,1010.17
2018-12-10T12:18:33.838Z,1010.16
2018-12-10T12:20:01.026Z,1010.19
2018-12-10T12:21:28.411Z,1010.20
2018-12-10T12:22:55.680Z,1010.19
2018-12-10T12:24:22.857Z,1010.20
2018-12-10T12:25:50.166Z,1010.17
2018-12-10T12:27:17.518Z,1010.16
2018-12-10T12:28:44.721Z,1010.13
2018-12-10T12:30:12.032Z,1010.16
2018-12-10T12:31:39.223Z,1010.11
2018-12-10T12:33:06.443Z,1010.02
2018-12-10T12:34:33.738Z,1010.02
2018-12-10T12:36:01.011Z,1010.00
2018-12-10T12:37:27.885Z,1010.00
2018-12-10T12:38:55.180Z,1010.04
2018-12-10T12:40:22.384Z,1010.15
2018-12-10T12:41:49.624Z,1010.16
2018-12-10T12:43:16.673Z,1010.16
2018-12-10T12:44:44.017Z,1010.10
2018-12-10T12:46:11.296Z,1010.08
2018-12-10T12:47:38.544Z,1010.06
2018-12-10T12:49:05.790Z,1010.09
2018-12-10T12:50:33.044Z,1010.09
2018-12-10T12:52:00.291Z,1010.08
2018-12-10T12:53:27.326Z,1010.10
2018-12-10T12:54:54.570Z,1010.07
2018-12-10T12:56:21.840Z,1010.06
2018-12-10T12:57:49.128Z,1010.00
2018-12-10T12:59:16.411Z,1010.02
2018-12-10T13:00:43.651Z,1009.99
2018-12-10T13:02:10.845Z,1009.95
2018-12-10T13:03:38.226Z,1009.99
2018-12-10T13:05:05.637Z,1009.97
2018-12-10T13:06:32.918Z,1009.98
2018-12-10T13:08:00.113Z,1009.95
2018-12-10T13:09:27.454Z,1010.01
2018-12-10T13:10:54.718Z,1009.98
2018-12-10T13:12:21.992Z,1009.98
2018-12-10T13:13:49.362Z,1009.97
2018-12-10T13:15:16.747Z,1010.01
2018-12-10T13:16:49.331Z,1009.97
2018-12-10T13:18:11.074Z,1009.99
2018-12-10T13:19:38.313Z,1009.99
2018-12-10T13:21:05.566Z,1009.94
2018-12-10T13:22:32.634Z,1009.93
2018-12-10T13:23:59.776Z,1009.90
2018-12-10T13:25:27.184Z,1009.91
2018-12-10T13:26:54.339Z,1009.90
2018-12-10T13:28:21.441Z,1009.91
2018-12-10T13:29:48.768Z,1009.93
2018-12-10T13:31:16.024Z,1009.90
2018-12-10T13:32:43.274Z,1009.86
2018-12-10T13:34:10.237Z,1009.88
2018-12-10T13:35:37.621Z,1009.83
2018-12-10T13:37:04.858Z,1009.86
2018-12-10T13:50:00.318Z,1009.86
2018-12-10T13:51:26.963Z,1009.91
2018-12-10T13:52:54.170Z,1009.96
2018-12-10T13:54:21.365Z,1009.99
2018-12-10T13:55:48.461Z,1010.01
2018-12-10T13:57:15.763Z,1010.02
2018-12-10T13:58:43.056Z,1010.02
2018-12-10T14:11:38.438Z,1010.00
2018-12-10T14:13:05.223Z,1010.00
2018-12-10T14:14:32.385Z,1009.98
2018-12-10T14:15:59.472Z,1009.91
2018-12-10T14:17:26.590Z,1009.91
2018-12-10T14:18:53.800Z,1009.94
2018-12-10T14:20:21.140Z,1009.90
2018-12-10T14:21:48.220Z,1009.94
2018-12-10T14:23:15.351Z,1009.95
